createdAt,value
2023-05-29T00:00:20.571Z,69.15
2023-05-29T00:01:20.560Z,69.33
2023-05-29T00:02:20.615Z,69.26
2023-05-29T00:03:20.686Z,68.90
2023-05-29T00:04:20.575Z,69.17
2023-05-29T00:05:20.617Z,68.83
2023-05-29T00:06:20.542Z,69.36
2023-05-29T00:07:20.523Z,69.52
2023-05-29T00:08:20.522Z,69.45
2023-05-29T00:09:20.476Z,69.15
2023-05-29T00:10:20.471Z,68.71
2023-05-29T00:11:20.458Z,69.64
2023-05-29T00:12:20.452Z,69.50
2023-05-29T00:13:20.508Z,69.56
2023-05-29T00:14:20.433Z,69.67
2023-05-29T00:15:20.418Z,69.43
2023-05-29T00:16:20.463Z,69.43
2023-05-29T00:17:20.418Z,69.00
2023-05-29T00:18:20.385Z,69.02
2023-05-29T00:19:20.400Z,68.99
2023-05-29T00:20:20.377Z,69.17
2023-05-29T00:21:20.350Z,68.85
2023-05-29T00:22:20.338Z,69.20
2023-05-29T00:23:20.337Z,68.92
2023-05-29T00:24:20.347Z,68.73
2023-05-29T00:25:20.304Z,68.92
2023-05-29T00:26:20.301Z,69.22
2023-05-29T00:27:20.280Z,69.72
2023-05-29T00:28:20.277Z,69.66
2023-05-29T00:29:20.279Z,69.46
2023-05-29T00:30:20.268Z,69.34
2023-05-29T00:31:20.290Z,69.10
2023-05-29T00:32:20.230Z,69.14
2023-05-29T00:33:20.232Z,69.54
2023-05-29T00:34:20.216Z,69.21
2023-05-29T00:35:20.209Z,69.64
2023-05-29T00:36:20.205Z,69.98
2023-05-29T00:37:20.199Z,70.47
2023-05-29T00:38:20.169Z,70.00
2023-05-29T00:39:20.162Z,70.43
2023-05-29T00:40:20.180Z,70.46
2023-05-29T00:41:20.140Z,70.50
2023-05-29T00:42:20.131Z,70.39
2023-05-29T00:43:20.114Z,70.50
2023-05-29T00:44:20.124Z,70.82
2023-05-29T00:45:20.142Z,70.63
2023-05-29T00:46:20.117Z,70.78
2023-05-29T00:47:20.070Z,71.14
2023-05-29T00:48:20.070Z,71.23
2023-05-29T00:49:20.046Z,71.05
2023-05-29T00:50:20.039Z,70.90
2023-05-29T00:51:20.045Z,71.60
2023-05-29T00:52:20.035Z,71.59
2023-05-29T00:53:20.009Z,71.79
2023-05-29T00:54:19.997Z,71.68
2023-05-29T00:55:19.985Z,71.70
2023-05-29T00:56:19.976Z,72.03
2023-05-29T00:57:19.990Z,72.11
2023-05-29T00:58:19.965Z,71.93
2023-05-29T00:59:19.944Z,71.90
2023-05-29T01:00:19.946Z,71.95
2023-05-29T01:01:20.003Z,72.37
2023-05-29T01:02:19.988Z,72.53
2023-05-29T01:03:20.013Z,72.94
2023-05-29T01:04:19.876Z,73.15
2023-05-29T01:05:19.882Z,72.76
2023-05-29T01:06:19.880Z,73.04
2023-05-29T01:07:19.854Z,73.05
2023-05-29T01:08:19.861Z,72.98
2023-05-29T01:09:19.841Z,72.75
2023-05-29T01:10:19.832Z,73.09
2023-05-29T01:11:19.812Z,73.15
2023-05-29T01:12:19.800Z,72.96
2023-05-29T01:13:19.794Z,73.31
2023-05-29T01:14:19.802Z,73.25
2023-05-29T01:15:19.779Z,73.73
2023-05-29T01:16:19.874Z,73.89
2023-05-29T01:17:19.748Z,74.04
2023-05-29T01:18:19.747Z,73.70
2023-05-29T01:19:19.719Z,73.55
2023-05-29T01:20:19.781Z,73.65
2023-05-29T01:21:19.709Z,73.75
2023-05-29T01:22:19.687Z,73.78
2023-05-29T01:23:19.716Z,73.50
2023-05-29T01:24:19.675Z,73.76
2023-05-29T01:25:19.656Z,74.17
2023-05-29T01:26:19.668Z,73.97
2023-05-29T01:27:19.634Z,73.54
2023-05-29T01:28:19.644Z,73.58
2023-05-29T01:29:19.608Z,74.04
2023-05-29T01:30:19.611Z,73.59
2023-05-29T01:31:19.637Z,73.37
2023-05-29T01:32:19.606Z,73.27
2023-05-29T01:33:19.570Z,72.75
2023-05-29T01:34:19.575Z,73.09
2023-05-29T01:35:19.572Z,73.42
2023-05-29T01:36:19.541Z,73.32
2023-05-29T01:37:19.531Z,73.82
2023-05-29T01:38:19.535Z,73.74
2023-05-29T01:39:19.505Z,73.57
2023-05-29T01:40:19.492Z,73.98
2023-05-29T01:41:19.477Z,73.51
2023-05-29T01:42:19.484Z,73.52
2023-05-29T01:43:19.465Z,73.98
2023-05-29T01:44:19.482Z,74.14
2023-05-29T01:45:19.445Z,74.12
2023-05-29T01:46:19.541Z,73.77
2023-05-29T01:47:19.439Z,73.82
2023-05-29T01:48:19.417Z,74.43
2023-05-29T01:49:19.424Z,74.18
2023-05-29T01:50:19.409Z,74.02
2023-05-29T01:51:19.393Z,73.95
2023-05-29T01:52:19.369Z,73.80
2023-05-29T01:53:19.371Z,74.12
2023-05-29T01:54:19.351Z,73.77
2023-05-29T01:55:19.337Z,73.63
2023-05-29T01:56:19.336Z,73.68
2023-05-29T01:57:19.321Z,74.19
2023-05-29T01:58:19.339Z,74.23
2023-05-29T01:59:19.300Z,74.20
2023-05-29T02:00:19.282Z,74.53
2023-05-29T02:01:19.318Z,74.13
2023-05-29T02:02:19.306Z,74.32
2023-05-29T02:03:19.278Z,74.03
2023-05-29T02:04:19.292Z,73.89
2023-05-29T02:05:19.265Z,74.02
2023-05-29T02:06:19.232Z,73.86
2023-05-29T02:07:19.227Z,74.42
2023-05-29T02:08:19.208Z,74.02
2023-05-29T02:09:19.185Z,74.14
2023-05-29T02:10:19.201Z,73.81
2023-05-29T02:11:19.182Z,73.96
2023-05-29T02:12:19.173Z,74.26
2023-05-29T02:13:19.148Z,74.23
2023-05-29T02:14:19.127Z,74.17
2023-05-29T02:15:19.135Z,73.80
2023-05-29T02:16:19.152Z,73.79
2023-05-29T02:17:19.103Z,74.36
2023-05-29T02:18:19.086Z,73.91
2023-05-29T02:19:19.082Z,74.00
2023-05-29T02:20:19.116Z,73.89
2023-05-29T02:21:19.051Z,73.93
2023-05-29T02:22:19.078Z,73.85
2023-05-29T02:23:19.034Z,74.01
2023-05-29T02:24:19.023Z,74.51
2023-05-29T02:25:19.045Z,74.33
2023-05-29T02:26:19.011Z,74.83
2023-05-29T02:27:19.010Z,74.67
2023-05-29T02:28:18.978Z,75.06
2023-05-29T02:29:18.992Z,74.80
2023-05-29T02:30:18.981Z,74.51
2023-05-29T02:31:18.964Z,74.60
2023-05-29T02:32:18.952Z,75.10
2023-05-29T02:33:18.951Z,74.84
2023-05-29T02:34:18.911Z,74.77
2023-05-29T02:35:18.911Z,75.13
2023-05-29T02:36:18.891Z,75.04
2023-05-29T02:37:18.878Z,75.49
2023-05-29T02:38:18.897Z,75.44
2023-05-29T02:39:18.871Z,75.90
2023-05-29T02:40:18.847Z,75.67
2023-05-29T02:41:18.839Z,75.46
2023-05-29T02:42:18.836Z,75.53
2023-05-29T02:43:18.826Z,75.63
2023-05-29T02:44:18.809Z,76.11
2023-05-29T02:45:18.819Z,76.06
2023-05-29T02:46:18.813Z,76.15
2023-05-29T02:47:18.766Z,75.60
2023-05-29T02:48:18.783Z,75.75
2023-05-29T02:49:18.755Z,75.60
2023-05-29T02:50:18.753Z,75.85
2023-05-29T02:51:18.735Z,75.68
2023-05-29T02:52:18.725Z,76.07
2023-05-29T02:53:18.701Z,75.81
2023-05-29T02:54:18.714Z,75.56
2023-05-29T02:55:18.687Z,75.34
2023-05-29T02:56:18.674Z,75.61
2023-05-29T02:57:18.663Z,75.43
2023-05-29T02:58:18.653Z,75.71
2023-05-29T02:59:18.637Z,76.03
2023-05-29T03:00:18.656Z,75.63
2023-05-29T03:01:18.639Z,75.65
2023-05-29T03:02:18.615Z,75.35
2023-05-29T03:03:18.735Z,75.67
2023-05-29T03:04:18.627Z,75.78
2023-05-29T03:05:18.628Z,75.58
2023-05-29T03:06:18.584Z,75.92
2023-05-29T03:07:18.558Z,75.78
2023-05-29T03:08:18.552Z,75.69
2023-05-29T03:09:18.546Z,75.60
2023-05-29T03:10:18.539Z,75.39
2023-05-29T03:11:18.513Z,75.14
2023-05-29T03:12:18.525Z,75.27
2023-05-29T03:13:18.491Z,75.76
2023-05-29T03:14:18.478Z,75.72
2023-05-29T03:15:18.467Z,75.69
2023-05-29T03:16:18.558Z,76.25
2023-05-29T03:17:18.449Z,76.10
2023-05-29T03:18:18.430Z,76.07
2023-05-29T03:19:18.428Z,76.00
2023-05-29T03:20:18.526Z,76.01
2023-05-29T03:21:18.442Z,76.05
2023-05-29T03:22:18.444Z,75.79
2023-05-29T03:23:18.379Z,75.92
2023-05-29T03:24:18.377Z,75.36
2023-05-29T03:25:18.394Z,75.43
2023-05-29T03:26:18.352Z,75.55
2023-05-29T03:27:18.366Z,75.27
2023-05-29T03:28:18.570Z,75.34
2023-05-29T03:29:18.316Z,75.61
2023-05-29T03:30:18.329Z,75.72
2023-05-29T03:31:18.332Z,75.82
2023-05-29T03:32:18.278Z,75.69
2023-05-29T03:33:18.275Z,75.84
2023-05-29T03:34:18.263Z,76.18
2023-05-29T03:35:18.259Z,75.66
2023-05-29T03:36:18.256Z,75.43
2023-05-29T03:37:18.243Z,75.12
2023-05-29T03:38:18.214Z,75.50
2023-05-29T03:39:18.209Z,75.58
2023-05-29T03:40:18.223Z,75.38
2023-05-29T03:41:18.204Z,75.64
2023-05-29T03:42:18.182Z,75.62
2023-05-29T03:43:18.168Z,75.36
2023-05-29T03:44:18.157Z,75.38
2023-05-29T03:45:18.159Z,75.51
2023-05-29T03:46:18.204Z,75.21
2023-05-29T03:47:18.266Z,75.50
2023-05-29T03:48:18.107Z,75.71
2023-05-29T03:49:18.103Z,75.25
2023-05-29T03:50:18.093Z,75.06
2023-05-29T03:51:18.079Z,75.28
2023-05-29T03:52:18.084Z,75.21
2023-05-29T03:53:18.063Z,75.40
2023-05-29T03:54:18.062Z,75.81
2023-05-29T03:55:18.035Z,75.17
2023-05-29T03:56:18.026Z,75.23
2023-05-29T03:57:18.068Z,75.59
2023-05-29T03:58:18.039Z,75.31
2023-05-29T03:59:18.008Z,74.75
2023-05-29T04:00:17.989Z,75.21
2023-05-29T04:01:17.987Z,75.81
2023-05-29T04:02:20.130Z,75.55
2023-05-29T04:03:18.064Z,75.40
2023-05-29T04:04:18.016Z,75.51
2023-05-29T04:05:17.928Z,75.81
2023-05-29T04:06:17.964Z,75.45
2023-05-29T04:07:17.929Z,75.62
2023-05-29T04:08:17.893Z,75.79
2023-05-29T04:09:17.881Z,75.18
2023-05-29T04:10:17.878Z,75.53
2023-05-29T04:11:17.864Z,75.34
2023-05-29T04:12:17.857Z,75.25
2023-05-29T04:13:17.866Z,75.07
2023-05-29T04:14:20.278Z,75.66
2023-05-29T04:15:17.821Z,75.08
2023-05-29T04:16:17.889Z,75.07
2023-05-29T04:17:17.870Z,75.59
2023-05-29T04:18:17.822Z,75.24
2023-05-29T04:19:18.255Z,75.28
2023-05-29T04:20:17.797Z,74.96
2023-05-29T04:21:17.751Z,74.83
2023-05-29T04:22:17.747Z,74.91
2023-05-29T04:23:17.735Z,75.31
2023-05-29T04:24:17.743Z,75.79
2023-05-29T04:25:17.720Z,75.53
2023-05-29T04:26:17.702Z,75.36
2023-05-29T04:27:17.845Z,75.48
2023-05-29T04:28:17.721Z,75.45
2023-05-29T04:29:17.674Z,75.38
2023-05-29T04:30:17.672Z,75.07
2023-05-29T04:31:17.705Z,75.28
2023-05-29T04:32:17.632Z,75.90
2023-05-29T04:33:17.622Z,75.06
2023-05-29T04:34:17.693Z,75.56
2023-05-29T04:35:17.615Z,75.35
2023-05-29T04:36:17.614Z,75.26
2023-05-29T04:37:17.580Z,75.61
2023-05-29T04:38:17.583Z,75.14
2023-05-29T04:39:17.557Z,75.31
2023-05-29T04:40:17.566Z,75.64
2023-05-29T04:41:17.549Z,75.73
2023-05-29T04:42:17.533Z,75.70
2023-05-29T04:43:17.523Z,75.45
2023-05-29T04:44:17.503Z,75.55
2023-05-29T04:45:17.539Z,75.62
2023-05-29T04:46:17.513Z,75.55
2023-05-29T04:47:17.480Z,75.35
2023-05-29T04:48:17.476Z,75.47
2023-05-29T04:49:17.455Z,75.75
2023-05-29T04:50:17.451Z,75.44
2023-05-29T04:51:17.437Z,74.83
2023-05-29T04:52:17.457Z,75.12
2023-05-29T04:53:17.399Z,74.79
2023-05-29T04:54:17.389Z,75.09
2023-05-29T04:55:17.404Z,74.45
2023-05-29T04:56:17.370Z,74.15
2023-05-29T04:57:17.373Z,74.73
2023-05-29T04:58:17.366Z,75.25
2023-05-29T04:59:17.336Z,74.65
2023-05-29T05:00:17.332Z,75.21
2023-05-29T05:01:17.366Z,74.63
2023-05-29T05:02:17.308Z,74.38
2023-05-29T05:03:17.292Z,74.43
2023-05-29T05:04:17.360Z,74.25
2023-05-29T05:05:17.284Z,74.77
2023-05-29T05:06:17.258Z,74.69
2023-05-29T05:07:17.275Z,74.24
2023-05-29T05:08:17.271Z,74.19
2023-05-29T05:09:17.226Z,74.20
2023-05-29T05:10:17.241Z,73.88
2023-05-29T05:11:17.211Z,74.48
2023-05-29T05:12:17.285Z,73.88
2023-05-29T05:13:17.188Z,73.99
2023-05-29T05:14:17.203Z,74.38
2023-05-29T05:15:17.168Z,73.92
2023-05-29T05:16:17.195Z,73.48
2023-05-29T05:17:17.148Z,74.17
2023-05-29T05:18:17.130Z,73.84
2023-05-29T05:19:17.129Z,73.47
2023-05-29T05:20:17.151Z,73.35
2023-05-29T05:21:17.096Z,73.67
2023-05-29T05:22:17.087Z,73.14
2023-05-29T05:23:17.073Z,73.42
2023-05-29T05:24:17.066Z,73.43
2023-05-29T05:25:17.060Z,72.82
2023-05-29T05:26:17.083Z,73.01
2023-05-29T05:27:17.052Z,73.00
2023-05-29T05:28:17.024Z,72.51
2023-05-29T05:29:17.021Z,73.16
2023-05-29T05:30:17.016Z,73.10
2023-05-29T05:31:17.036Z,73.80
2023-05-29T05:32:17.046Z,73.51
2023-05-29T05:33:16.986Z,73.15
2023-05-29T05:34:16.961Z,72.79
2023-05-29T05:35:16.956Z,72.44
2023-05-29T05:36:16.936Z,72.47
2023-05-29T05:37:16.935Z,71.81
2023-05-29T05:38:16.940Z,71.37
2023-05-29T05:39:16.922Z,71.36
2023-05-29T05:40:16.903Z,71.84
2023-05-29T05:41:16.890Z,71.86
2023-05-29T05:42:16.886Z,72.04
2023-05-29T05:43:16.876Z,71.97
2023-05-29T05:44:16.909Z,71.30
2023-05-29T05:45:16.845Z,71.66
2023-05-29T05:46:16.873Z,72.15
2023-05-29T05:47:16.823Z,71.86
2023-05-29T05:48:16.827Z,72.09
2023-05-29T05:49:16.814Z,71.52
2023-05-29T05:50:16.818Z,71.43
2023-05-29T05:51:16.789Z,71.18
2023-05-29T05:52:16.783Z,71.13
2023-05-29T05:53:16.764Z,70.87
2023-05-29T05:54:16.748Z,70.51
2023-05-29T05:55:16.747Z,70.94
2023-05-29T05:56:16.739Z,71.00
2023-05-29T05:57:16.718Z,71.36
2023-05-29T05:58:16.712Z,71.13
2023-05-29T05:59:16.709Z,71.06
2023-05-29T06:00:16.698Z,70.94
2023-05-29T06:01:16.673Z,70.61
2023-05-29T06:02:16.717Z,70.83
2023-05-29T06:03:16.877Z,70.50
2023-05-29T06:04:16.739Z,70.20
2023-05-29T06:05:16.647Z,70.04
2023-05-29T06:06:16.619Z,70.23
2023-05-29T06:07:16.609Z,70.42
2023-05-29T06:08:16.617Z,69.79
2023-05-29T06:09:16.590Z,70.09
2023-05-29T06:10:16.580Z,70.32
2023-05-29T06:11:16.569Z,70.35
2023-05-29T06:12:16.563Z,70.36
2023-05-29T06:13:16.564Z,70.79
2023-05-29T06:14:16.544Z,70.35
2023-05-29T06:15:16.530Z,69.95
2023-05-29T06:16:16.579Z,69.83
2023-05-29T06:17:16.560Z,70.29
2023-05-29T06:18:16.552Z,69.37
2023-05-29T06:19:16.494Z,68.98
2023-05-29T06:20:16.560Z,69.77
2023-05-29T06:21:16.468Z,70.12
2023-05-29T06:22:16.454Z,70.61
2023-05-29T06:23:16.433Z,69.88
2023-05-29T06:24:16.492Z,69.91
2023-05-29T06:25:16.420Z,69.34
2023-05-29T06:26:16.411Z,69.44
2023-05-29T06:27:16.395Z,69.81
2023-05-29T06:28:16.411Z,69.91
2023-05-29T06:29:16.488Z,69.55
2023-05-29T06:30:16.409Z,69.27
2023-05-29T06:31:16.432Z,69.62
2023-05-29T06:32:16.372Z,69.39
2023-05-29T06:33:16.334Z,68.90
2023-05-29T06:34:16.330Z,68.78
2023-05-29T06:35:16.310Z,68.65
2023-05-29T06:36:16.314Z,68.43
2023-05-29T06:37:16.345Z,67.60
2023-05-29T06:38:16.313Z,67.96
2023-05-29T06:39:16.309Z,67.66
2023-05-29T06:40:16.271Z,68.06
2023-05-29T06:41:16.247Z,67.44
2023-05-29T06:42:16.258Z,66.54
2023-05-29T06:43:16.296Z,66.86
2023-05-29T06:44:16.258Z,67.16
2023-05-29T06:45:16.252Z,67.40
2023-05-29T06:46:16.293Z,67.17
2023-05-29T06:47:16.383Z,66.77
2023-05-29T06:48:16.777Z,66.77
2023-05-29T06:49:16.311Z,65.39
2023-05-29T06:50:16.161Z,66.73
2023-05-29T06:51:16.169Z,67.09
2023-05-29T06:52:16.148Z,65.45
2023-05-29T06:53:16.190Z,65.69
2023-05-29T06:54:16.182Z,65.77
2023-05-29T06:55:16.324Z,65.23
2023-05-29T06:56:16.111Z,64.74
2023-05-29T06:57:16.320Z,64.40
2023-05-29T06:58:16.096Z,65.17
2023-05-29T06:59:16.063Z,64.69
2023-05-29T07:00:16.055Z,64.79
2023-05-29T07:01:16.140Z,64.50
2023-05-29T07:02:16.029Z,64.31
2023-05-29T07:03:16.129Z,65.12
2023-05-29T07:04:16.054Z,65.47
2023-05-29T07:05:16.054Z,64.98
2023-05-29T07:06:16.111Z,65.40
2023-05-29T07:07:15.961Z,64.72
2023-05-29T07:08:15.979Z,65.00
2023-05-29T07:09:15.983Z,63.70
2023-05-29T07:10:15.940Z,64.10
2023-05-29T07:11:15.941Z,63.81
2023-05-29T07:12:16.008Z,65.07
2023-05-29T07:13:15.997Z,64.98
2023-05-29T07:14:15.949Z,64.87
2023-05-29T07:15:15.882Z,64.61
2023-05-29T07:16:24.411Z,63.73
2023-05-29T07:17:16.035Z,64.02
2023-05-29T07:18:16.041Z,64.49
2023-05-29T07:19:21.285Z,64.41
2023-05-29T07:20:15.876Z,63.68
2023-05-29T07:21:15.865Z,63.28
2023-05-29T07:22:15.846Z,63.40
2023-05-29T07:23:15.872Z,63.27
2023-05-29T07:24:15.869Z,63.08
2023-05-29T07:25:15.798Z,62.43
2023-05-29T07:26:15.799Z,62.80
2023-05-29T07:27:16.143Z,63.49
2023-05-29T07:29:15.797Z,63.24
2023-05-29T07:30:15.753Z,62.85
2023-05-29T07:31:15.720Z,62.96
2023-05-29T07:32:15.710Z,62.75
2023-05-29T07:33:15.687Z,63.17
2023-05-29T07:34:15.684Z,63.01
2023-05-29T07:35:15.686Z,63.01
2023-05-29T07:36:15.658Z,61.18
2023-05-29T07:37:15.680Z,62.40
2023-05-29T07:38:15.637Z,63.12
2023-05-29T07:39:15.627Z,62.56
2023-05-29T07:40:15.623Z,61.76
2023-05-29T07:41:15.626Z,62.64
2023-05-29T07:42:15.617Z,63.62
2023-05-29T07:43:15.649Z,62.47
2023-05-29T07:44:15.580Z,61.34
2023-05-29T07:45:15.585Z,61.95
2023-05-29T07:46:15.594Z,61.39
2023-05-29T07:47:15.642Z,59.65
2023-05-29T07:48:15.628Z,60.16
2023-05-29T07:49:15.592Z,60.88
2023-05-29T07:50:15.517Z,61.16
2023-05-29T07:51:15.498Z,61.41
2023-05-29T07:52:15.526Z,60.45
2023-05-29T07:53:15.469Z,60.84
2023-05-29T07:54:15.468Z,60.53
2023-05-29T07:55:15.461Z,60.20
2023-05-29T07:56:15.439Z,60.61
2023-05-29T07:57:15.436Z,61.12
2023-05-29T07:58:15.433Z,58.88
2023-05-29T07:59:15.412Z,59.65
2023-05-29T08:00:15.453Z,59.25
2023-05-29T08:01:15.404Z,59.72
2023-05-29T08:02:15.380Z,58.75
2023-05-29T08:03:15.483Z,60.25
2023-05-29T08:04:15.373Z,59.88
2023-05-29T08:05:15.404Z,59.21
2023-05-29T08:06:15.410Z,58.24
2023-05-29T08:07:15.368Z,59.49
2023-05-29T08:08:15.332Z,58.59
2023-05-29T08:09:15.320Z,59.27
2023-05-29T08:10:15.303Z,58.63
2023-05-29T08:11:15.286Z,58.65
2023-05-29T08:12:15.309Z,57.92
2023-05-29T08:13:15.281Z,59.44
2023-05-29T08:14:15.264Z,60.02
2023-05-29T08:15:15.255Z,58.95
2023-05-29T08:16:15.514Z,58.26
2023-05-29T08:17:16.453Z,57.45
2023-05-29T08:18:15.266Z,56.78
2023-05-29T08:19:15.212Z,58.70
2023-05-29T08:20:15.247Z,59.31
2023-05-29T08:21:15.180Z,59.19
2023-05-29T08:22:15.178Z,57.04
2023-05-29T08:23:15.175Z,58.81
2023-05-29T08:24:15.150Z,58.34
2023-05-29T08:25:15.221Z,58.70
2023-05-29T08:26:15.127Z,59.88
2023-05-29T08:27:15.117Z,61.16
2023-05-29T08:28:15.111Z,57.69
2023-05-29T08:29:15.142Z,58.29
2023-05-29T08:30:15.083Z,59.17
2023-05-29T08:31:15.160Z,57.76
2023-05-29T08:32:15.078Z,58.78
2023-05-29T08:33:15.092Z,57.97
2023-05-29T08:34:15.050Z,58.26
2023-05-29T08:35:15.066Z,57.94
2023-05-29T08:36:15.022Z,56.78
2023-05-29T08:37:15.014Z,57.47
2023-05-29T08:38:15.022Z,57.47
2023-05-29T08:39:15.004Z,56.76
2023-05-29T08:40:14.988Z,57.15
2023-05-29T08:41:15.035Z,57.54
2023-05-29T08:42:15.062Z,57.15
2023-05-29T08:43:14.968Z,56.40
2023-05-29T08:44:15.072Z,56.00
2023-05-29T08:45:14.933Z,57.25
2023-05-29T08:46:14.983Z,56.91
2023-05-29T08:47:15.025Z,56.72
2023-05-29T08:48:15.082Z,55.92
2023-05-29T08:49:14.883Z,57.34
2023-05-29T08:50:15.133Z,56.96
2023-05-29T08:51:15.024Z,55.79
2023-05-29T08:52:14.857Z,56.34
2023-05-29T08:53:14.859Z,55.46
2023-05-29T08:54:15.129Z,56.79
2023-05-29T08:55:14.913Z,55.19
2023-05-29T08:56:23.073Z,56.51
2023-05-29T08:57:14.826Z,55.42
2023-05-29T08:58:14.818Z,55.79
2023-05-29T08:59:14.943Z,55.83
2023-05-29T09:00:14.780Z,56.93
2023-05-29T09:01:14.858Z,55.64
2023-05-29T09:02:14.864Z,56.03
2023-05-29T09:03:14.857Z,54.88
2023-05-29T09:04:14.782Z,55.62
2023-05-29T09:05:14.751Z,55.06
2023-05-29T09:06:14.707Z,54.75
2023-05-29T09:07:14.859Z,54.91
2023-05-29T09:08:14.687Z,55.17
2023-05-29T09:09:14.693Z,54.12
2023-05-29T09:10:14.865Z,55.71
2023-05-29T09:11:14.813Z,54.90
2023-05-29T09:12:15.715Z,55.56
2023-05-29T09:14:01.161Z,54.64
2023-05-29T09:14:14.713Z,54.96
2023-05-29T09:15:14.653Z,54.11
2023-05-29T09:16:14.634Z,53.76
2023-05-29T09:17:14.706Z,53.33
2023-05-29T09:18:14.675Z,54.76
2023-05-29T09:19:14.568Z,53.90
2023-05-29T09:20:14.620Z,53.77
2023-05-29T09:21:14.569Z,54.42
2023-05-29T09:22:14.542Z,53.56
2023-05-29T09:23:14.533Z,54.28
2023-05-29T09:24:14.554Z,53.13
2023-05-29T09:25:14.524Z,53.78
2023-05-29T09:26:14.529Z,53.20
2023-05-29T09:27:14.496Z,53.46
2023-05-29T09:28:14.478Z,53.35
2023-05-29T09:29:14.481Z,53.90
2023-05-29T09:30:14.452Z,54.74
2023-05-29T09:31:14.511Z,55.01
2023-05-29T09:32:14.426Z,54.37
2023-05-29T09:33:14.422Z,54.10
2023-05-29T09:34:14.439Z,53.38
2023-05-29T09:35:14.410Z,53.02
2023-05-29T09:36:14.418Z,52.64
2023-05-29T09:37:16.192Z,52.30
2023-05-29T09:38:24.802Z,52.39
2023-05-29T09:39:17.948Z,51.61
2023-05-29T09:40:14.343Z,53.01
2023-05-29T09:41:14.404Z,52.47
2023-05-29T09:42:14.361Z,52.78
2023-05-29T09:43:14.350Z,53.43
2023-05-29T09:44:14.301Z,52.41
2023-05-29T09:45:14.308Z,52.81
2023-05-29T09:46:14.308Z,51.87
2023-05-29T09:47:14.299Z,51.64
2023-05-29T09:48:14.313Z,51.15
2023-05-29T09:49:14.313Z,52.16
2023-05-29T09:50:14.246Z,52.47
2023-05-29T09:51:14.220Z,52.36
2023-05-29T09:52:14.210Z,50.82
2023-05-29T09:53:14.198Z,51.11
2023-05-29T09:54:14.211Z,52.51
2023-05-29T09:55:14.200Z,52.99
2023-05-29T09:56:14.177Z,51.84
2023-05-29T09:57:14.174Z,53.89
2023-05-29T09:58:14.163Z,53.55
2023-05-29T09:59:14.166Z,52.93
2023-05-29T10:00:14.153Z,52.05
2023-05-29T10:01:14.118Z,53.84
2023-05-29T10:02:15.140Z,52.35
2023-05-29T10:03:14.205Z,53.10
2023-05-29T10:04:14.116Z,53.28
2023-05-29T10:05:14.195Z,51.52
2023-05-29T10:06:14.059Z,51.91
2023-05-29T10:07:14.038Z,52.25
2023-05-29T10:08:14.095Z,53.28
2023-05-29T10:09:14.031Z,51.24
2023-05-29T10:10:14.020Z,51.72
2023-05-29T10:11:14.030Z,51.62
2023-05-29T10:12:14.041Z,51.43
2023-05-29T10:13:13.986Z,51.67
2023-05-29T10:14:13.990Z,51.81
2023-05-29T10:15:13.989Z,51.90
2023-05-29T10:16:14.614Z,51.37
2023-05-29T10:17:13.940Z,52.49
2023-05-29T10:18:13.972Z,51.36
2023-05-29T10:19:13.937Z,52.09
2023-05-29T10:20:13.948Z,52.48
2023-05-29T10:21:13.950Z,51.22
2023-05-29T10:22:13.955Z,51.45
2023-05-29T10:23:13.884Z,52.01
2023-05-29T10:24:13.872Z,51.48
2023-05-29T10:25:13.861Z,49.73
2023-05-29T10:26:13.853Z,52.15
2023-05-29T10:27:13.823Z,51.58
2023-05-29T10:28:13.823Z,52.00
2023-05-29T10:29:13.831Z,51.82
2023-05-29T10:30:13.802Z,51.49
2023-05-29T10:31:13.822Z,49.95
2023-05-29T10:32:13.966Z,50.47
2023-05-29T10:33:13.898Z,51.53
2023-05-29T10:34:13.752Z,51.45
2023-05-29T10:35:13.752Z,52.13
2023-05-29T10:36:13.751Z,52.08
2023-05-29T10:37:13.735Z,52.19
2023-05-29T10:38:13.733Z,51.53
2023-05-29T10:39:13.732Z,51.40
2023-05-29T10:40:13.692Z,51.54
2023-05-29T10:41:13.726Z,50.83
2023-05-29T10:42:13.680Z,52.36
2023-05-29T10:43:13.654Z,51.91
2023-05-29T10:44:13.659Z,51.74
2023-05-29T10:45:13.665Z,51.13
2023-05-29T10:46:13.702Z,50.68
2023-05-29T10:47:13.945Z,51.64
2023-05-29T10:48:13.689Z,51.36
2023-05-29T10:49:13.601Z,50.08
2023-05-29T10:50:13.580Z,50.71
2023-05-29T10:51:13.569Z,50.71
2023-05-29T10:52:13.586Z,50.82
2023-05-29T10:53:13.561Z,50.15
2023-05-29T10:54:13.554Z,50.40
2023-05-29T10:55:13.522Z,50.44
2023-05-29T10:56:13.515Z,49.88
2023-05-29T10:57:13.501Z,50.51
2023-05-29T10:58:13.508Z,49.94
2023-05-29T10:59:13.494Z,50.37
2023-05-29T11:00:13.491Z,49.26
2023-05-29T11:01:13.517Z,51.30
2023-05-29T11:02:13.481Z,51.02
2023-05-29T11:03:13.446Z,50.67
2023-05-29T11:04:13.474Z,51.29
2023-05-29T11:05:13.428Z,50.75
2023-05-29T11:06:13.435Z,50.77
2023-05-29T11:07:13.455Z,50.56
2023-05-29T11:08:13.414Z,50.38
2023-05-29T11:09:13.386Z,50.24
2023-05-29T11:10:13.361Z,49.44
2023-05-29T11:11:13.362Z,49.70
2023-05-29T11:12:13.382Z,50.94
2023-05-29T11:13:13.329Z,50.56
2023-05-29T11:14:13.330Z,51.50
2023-05-29T11:15:13.522Z,50.71
2023-05-29T11:16:13.353Z,50.24
2023-05-29T11:17:13.298Z,50.79
2023-05-29T11:18:13.378Z,50.10
2023-05-29T11:19:13.295Z,51.40
2023-05-29T11:20:13.276Z,50.83
2023-05-29T11:21:13.258Z,50.46
2023-05-29T11:22:13.274Z,50.90
2023-05-29T11:23:14.751Z,51.81
2023-05-29T11:24:13.228Z,50.68
2023-05-29T11:25:13.206Z,50.55
2023-05-29T11:26:13.180Z,51.62
2023-05-29T11:27:13.187Z,50.46
2023-05-29T11:28:13.164Z,51.00
2023-05-29T11:29:13.271Z,50.27
2023-05-29T11:30:13.188Z,50.26
2023-05-29T11:31:13.227Z,51.14
2023-05-29T11:32:13.144Z,49.45
2023-05-29T11:33:13.100Z,49.48
2023-05-29T11:34:13.238Z,51.34
2023-05-29T11:35:13.248Z,51.89
2023-05-29T11:36:13.100Z,51.82
2023-05-29T11:37:13.125Z,50.76
2023-05-29T11:38:13.050Z,50.94
2023-05-29T11:39:13.043Z,50.02
2023-05-29T11:40:13.030Z,50.72
2023-05-29T11:41:13.054Z,50.30
2023-05-29T11:42:13.276Z,50.91
2023-05-29T11:43:13.031Z,51.54
2023-05-29T11:44:13.061Z,50.70
2023-05-29T11:45:12.994Z,50.71
2023-05-29T11:46:12.979Z,51.96
2023-05-29T11:47:13.014Z,51.32
2023-05-29T11:48:13.007Z,52.81
2023-05-29T11:49:12.960Z,51.14
2023-05-29T11:50:13.048Z,51.72
2023-05-29T11:51:12.917Z,51.64
2023-05-29T11:53:12.883Z,51.04
2023-05-29T11:54:12.876Z,51.81
2023-05-29T11:55:12.864Z,51.06
2023-05-29T11:56:12.930Z,51.35
2023-05-29T11:57:12.853Z,51.51
2023-05-29T11:58:12.831Z,50.71
2023-05-29T11:59:12.832Z,50.88
2023-05-29T12:00:12.845Z,50.78
2023-05-29T12:01:12.821Z,51.09
2023-05-29T12:02:12.838Z,52.12
2023-05-29T12:03:12.827Z,52.96
2023-05-29T12:04:12.766Z,52.16
2023-05-29T12:05:13.082Z,51.85
2023-05-29T12:06:12.814Z,52.09
2023-05-29T12:07:12.751Z,51.44
2023-05-29T12:08:12.725Z,51.17
2023-05-29T12:09:12.711Z,50.17
2023-05-29T12:10:12.787Z,50.09
2023-05-29T12:11:12.792Z,50.63
2023-05-29T12:12:12.707Z,49.54
2023-05-29T12:13:12.699Z,50.92
2023-05-29T12:14:12.712Z,51.10
2023-05-29T12:15:12.656Z,50.02
2023-05-29T12:16:12.646Z,51.21
2023-05-29T12:17:12.775Z,50.95
2023-05-29T12:18:12.802Z,51.38
2023-05-29T12:19:12.610Z,52.18
2023-05-29T12:20:12.749Z,50.65
2023-05-29T12:21:12.586Z,50.64
2023-05-29T12:22:12.615Z,51.03
2023-05-29T12:23:12.590Z,51.22
2023-05-29T12:24:15.068Z,50.55
2023-05-29T12:25:12.567Z,51.88
2023-05-29T12:26:12.561Z,50.10
2023-05-29T12:27:12.809Z,50.99
2023-05-29T12:28:12.560Z,51.16
2023-05-29T12:29:12.594Z,50.30
2023-05-29T12:30:17.586Z,51.50
2023-05-29T12:31:12.532Z,50.78
2023-05-29T12:32:12.645Z,50.37
2023-05-29T12:33:12.557Z,50.38
2023-05-29T12:34:12.435Z,50.72
2023-05-29T12:35:12.480Z,51.39
2023-05-29T12:36:12.472Z,50.55
2023-05-29T12:37:14.014Z,52.77
2023-05-29T12:38:12.400Z,52.14
2023-05-29T12:39:12.396Z,51.58
2023-05-29T12:40:12.493Z,51.56
2023-05-29T12:41:12.413Z,51.45
2023-05-29T12:42:12.410Z,50.85
2023-05-29T12:43:12.369Z,51.43
2023-05-29T12:44:12.356Z,50.48
2023-05-29T12:45:12.327Z,50.13
2023-05-29T12:46:12.372Z,50.06
2023-05-29T12:47:12.325Z,50.47
2023-05-29T12:48:12.318Z,50.11
2023-05-29T12:49:12.279Z,51.42
2023-05-29T12:50:12.444Z,51.23
2023-05-29T12:51:12.260Z,50.04
2023-05-29T12:52:12.290Z,49.88
2023-05-29T12:53:12.287Z,50.84
2023-05-29T12:54:12.545Z,50.05